createdAt,value
2022-10-13T00:04:41.421Z,96202.00
2022-10-13T00:10:10.497Z,96189.00
2022-10-13T00:15:49.792Z,96196.00
2022-10-13T00:21:28.617Z,96193.00
2022-10-13T00:26:57.637Z,96192.00
2022-10-13T00:32:26.457Z,96194.00
2022-10-13T00:37:59.255Z,96189.00
2022-10-13T00:44:48.653Z,96187.00
2022-10-13T00:50:55.863Z,96182.00
2022-10-13T00:56:28.869Z,96182.00
2022-10-13T01:02:11.315Z,96176.00
2022-10-13T01:07:45.122Z,96184.00
2022-10-13T01:14:04.306Z,96172.00
2022-10-13T01:20:11.219Z,96178.00
2022-10-13T01:26:15.755Z,96174.00
2022-10-13T01:32:10.068Z,96183.00
2022-10-13T01:37:56.688Z,96176.00
2022-10-13T01:43:47.176Z,96175.00
2022-10-13T01:49:26.050Z,96176.00
2022-10-13T01:55:04.995Z,96183.00
2022-10-13T02:00:54.077Z,96175.00
2022-10-13T02:07:15.287Z,96178.00
2022-10-13T02:13:05.323Z,96176.00
2022-10-13T02:18:36.281Z,96183.00
2022-10-13T02:24:11.140Z,96186.00
2022-10-13T02:30:02.468Z,96179.00
2022-10-13T02:35:34.447Z,96179.00
2022-10-13T02:41:03.669Z,96188.00
2022-10-13T02:46:32.167Z,96184.00
2022-10-13T02:52:02.106Z,96185.00
2022-10-13T02:57:35.415Z,96172.00
2022-10-13T03:03:10.465Z,96178.00
2022-10-13T03:08:39.381Z,96178.00
2022-10-13T03:14:15.871Z,96178.00
2022-10-13T03:19:47.132Z,96160.00
2022-10-13T03:25:22.392Z,96170.00
2022-10-13T03:31:18.064Z,96167.00
2022-10-13T03:36:48.664Z,96161.00
2022-10-13T03:42:20.426Z,96159.00
2022-10-13T03:47:50.662Z,96162.00
2022-10-13T03:53:29.550Z,96161.00
2022-10-13T03:59:02.351Z,96153.00
2022-10-13T04:04:31.116Z,96177.00
2022-10-13T04:10:14.010Z,96185.00
2022-10-13T04:15:48.939Z,96182.00
2022-10-13T04:21:17.243Z,96186.00
2022-10-13T04:26:48.917Z,96189.00
2022-10-13T04:32:22.023Z,96184.00
2022-10-13T04:37:51.143Z,96177.00
2022-10-13T04:43:22.714Z,96176.00
2022-10-13T04:48:53.874Z,96172.00
2022-10-13T04:54:38.921Z,96175.00
2022-10-13T05:00:08.795Z,96169.00
2022-10-13T05:05:43.028Z,96165.00
2022-10-13T05:11:18.196Z,96168.00
2022-10-13T05:16:53.258Z,96164.00
2022-10-13T05:22:23.396Z,96170.00
2022-10-13T05:27:58.144Z,96175.00
2022-10-13T05:33:39.032Z,96180.00
2022-10-13T05:39:10.595Z,96175.00
2022-10-13T05:44:46.382Z,96180.00
2022-10-13T05:50:19.630Z,96172.00
2022-10-13T05:55:51.407Z,96176.00
2022-10-13T06:01:27.404Z,96168.00
2022-10-13T06:06:56.451Z,96175.00
2022-10-13T06:12:27.105Z,96171.00
2022-10-13T06:18:02.985Z,96166.00
2022-10-13T06:23:31.780Z,96170.00
2022-10-13T06:29:01.466Z,96168.00
2022-10-13T06:34:43.431Z,96171.00
2022-10-13T06:40:15.814Z,96170.00
2022-10-13T06:45:46.973Z,96170.00
2022-10-13T06:51:19.299Z,96171.00
2022-10-13T06:56:51.665Z,96165.00
2022-10-13T07:02:20.410Z,96171.00
2022-10-13T07:07:55.013Z,96176.00
2022-10-13T07:13:26.489Z,96177.00
2022-10-13T07:18:55.807Z,96166.00
2022-10-13T07:24:25.851Z,96176.00
2022-10-13T07:29:54.555Z,96177.00
2022-10-13T07:35:32.778Z,96174.00
2022-10-13T07:41:08.548Z,96168.00
2022-10-13T07:46:37.340Z,96169.00
2022-10-13T07:52:08.152Z,96171.00
2022-10-13T07:57:39.582Z,96168.00
2022-10-13T08:03:08.390Z,96158.00
2022-10-13T08:08:38.942Z,96168.00
2022-10-13T08:14:07.642Z,96159.00
2022-10-13T08:19:40.026Z,96146.00
2022-10-13T08:25:11.098Z,96146.00
2022-10-13T08:30:43.003Z,96141.00
2022-10-13T08:36:19.875Z,96148.00
2022-10-13T08:48:07.297Z,96166.00
2022-10-13T08:53:45.218Z,96160.00
2022-10-13T08:59:22.175Z,96160.00
2022-10-13T09:04:54.878Z,96153.00
2022-10-13T09:10:26.143Z,96157.00
2022-10-13T09:15:59.574Z,96151.00
2022-10-13T09:21:33.294Z,96139.00
2022-10-13T09:27:16.733Z,96137.00
2022-10-13T09:32:45.255Z,96132.00
2022-10-13T09:38:28.068Z,96125.00
2022-10-13T09:43:59.337Z,96129.00
2022-10-13T09:49:40.638Z,96126.00
2022-10-13T09:55:36.784Z,96131.00
2022-10-13T10:01:07.952Z,96122.00
2022-10-13T10:06:38.402Z,96128.00
2022-10-13T10:12:11.101Z,96134.00
2022-10-13T10:18:03.975Z,96122.00
2022-10-13T10:24:01.452Z,96119.00
2022-10-13T10:29:47.666Z,96139.00
2022-10-13T10:36:04.600Z,96121.00
2022-10-13T10:41:57.472Z,96121.00
2022-10-13T10:47:36.619Z,96104.00
2022-10-13T10:54:02.771Z,96102.00
2022-10-13T11:00:08.067Z,96101.00
2022-10-13T11:06:03.567Z,96096.00
2022-10-13T11:11:57.076Z,96085.00
2022-10-13T11:17:34.452Z,96078.00
2022-10-13T11:23:10.652Z,96072.00
2022-10-13T11:28:45.747Z,96067.00
2022-10-13T11:34:34.790Z,96049.00
2022-10-13T11:41:07.801Z,96055.00
2022-10-13T11:47:31.905Z,96046.00
2022-10-13T11:53:16.482Z,96034.00
2022-10-13T11:58:46.908Z,96030.00
2022-10-13T12:04:16.581Z,96028.00
2022-10-13T12:09:56.531Z,96031.00
2022-10-13T12:15:36.813Z,96021.00
2022-10-13T12:21:13.842Z,96008.00
2022-10-13T12:26:45.992Z,96000.00
2022-10-13T12:32:36.121Z,95994.00
2022-10-13T12:38:21.902Z,95996.00
2022-10-13T12:44:01.064Z,95996.00
2022-10-13T12:49:43.668Z,95990.00
2022-10-13T12:55:21.301Z,96002.00
2022-10-13T13:01:15.668Z,95978.00
2022-10-13T13:07:38.377Z,95966.00
2022-10-13T13:13:30.228Z,95959.00
2022-10-13T13:19:01.796Z,95963.00
2022-10-13T13:24:41.228Z,95957.00
2022-10-13T13:30:24.911Z,95960.00
2022-10-13T13:35:58.231Z,95958.00
2022-10-13T13:41:31.233Z,95956.00
2022-10-13T13:47:03.625Z,95950.00
2022-10-13T13:52:35.212Z,95936.00
2022-10-13T13:58:06.907Z,95934.00
2022-10-13T14:03:35.684Z,95942.00
2022-10-13T14:09:12.685Z,95941.00
2022-10-13T14:14:42.314Z,95938.00
2022-10-13T14:20:14.602Z,95928.00
2022-10-13T14:25:43.615Z,95935.00
2022-10-13T14:31:21.353Z,95932.00
2022-10-13T14:36:50.141Z,95926.00
2022-10-13T14:42:25.807Z,95927.00
2022-10-13T14:47:59.527Z,95921.00
2022-10-13T14:53:31.630Z,95918.00
2022-10-13T14:59:07.697Z,95916.00
2022-10-13T15:04:49.713Z,95915.00
2022-10-13T15:10:42.266Z,95907.00
2022-10-13T15:16:43.753Z,95909.00
2022-10-13T15:22:12.464Z,95908.00
2022-10-13T15:27:42.231Z,95917.00
2022-10-13T15:33:14.735Z,95911.00
2022-10-13T15:38:51.689Z,95904.00
2022-10-13T15:44:28.109Z,95911.00
2022-10-13T15:50:05.833Z,95909.00
2022-10-13T15:55:39.506Z,95906.00
2022-10-13T16:01:15.978Z,95910.00
2022-10-13T16:06:53.920Z,95906.00
2022-10-13T16:12:25.373Z,95902.00
2022-10-13T16:18:03.762Z,95901.00
2022-10-13T16:23:37.894Z,95900.00
2022-10-13T16:29:13.316Z,95899.00
2022-10-13T16:34:48.164Z,95907.00
2022-10-13T16:40:21.445Z,95911.00
2022-10-13T16:46:05.961Z,95918.00
2022-10-13T16:51:38.429Z,95910.00
2022-10-13T16:57:16.353Z,95916.00
2022-10-13T17:02:49.458Z,95908.00
2022-10-13T17:08:22.751Z,95914.00
2022-10-13T17:13:57.708Z,95908.00
2022-10-13T17:19:30.425Z,95909.00
2022-10-13T17:25:02.124Z,95924.00
2022-10-13T17:30:33.485Z,95929.00
2022-10-13T17:36:14.539Z,95932.00
2022-10-13T17:41:44.233Z,95922.00
2022-10-13T17:47:19.675Z,95914.00
2022-10-13T17:52:53.395Z,95916.00
2022-10-13T17:58:25.748Z,95914.00
2022-10-13T18:04:05.958Z,95908.00
2022-10-13T18:09:36.678Z,95913.00
2022-10-13T18:15:07.556Z,95909.00
2022-10-13T18:26:38.670Z,95898.00
2022-10-13T18:32:09.177Z,95902.00
2022-10-13T18:37:39.148Z,95894.00
2022-10-13T18:43:09.391Z,95894.00
2022-10-13T18:48:44.583Z,95897.00
2022-10-13T18:54:19.089Z,95890.00
2022-10-13T18:59:51.460Z,95887.00
2022-10-13T19:05:31.473Z,95886.00
2022-10-13T19:11:19.939Z,95880.00
2022-10-13T19:16:51.905Z,95880.00
2022-10-13T19:22:25.704Z,95870.00
2022-10-13T19:28:03.340Z,95864.00
2022-10-13T19:33:34.256Z,95865.00
2022-10-13T19:39:19.418Z,95873.00
2022-10-13T19:45:01.830Z,95877.00
2022-10-13T19:50:39.795Z,95869.00
2022-10-13T19:56:34.376Z,95878.00
2022-10-13T20:02:07.568Z,95870.00
2022-10-13T20:07:36.419Z,95865.00
2022-10-13T20:13:11.380Z,95864.00
2022-10-13T20:18:50.383Z,95869.00
2022-10-13T20:24:28.510Z,95871.00
2022-10-13T20:30:02.018Z,95876.00
2022-10-13T20:35:49.556Z,95870.00
2022-10-13T20:41:30.384Z,95878.00
2022-10-13T20:47:03.341Z,95875.00
2022-10-13T20:52:41.272Z,95878.00
2022-10-13T20:58:12.538Z,95873.00
2022-10-13T21:03:45.124Z,95872.00
2022-10-13T21:09:16.769Z,95861.00
2022-10-13T21:14:50.324Z,95855.00
2022-10-13T21:20:21.973Z,95866.00
2022-10-13T21:25:53.787Z,95868.00
2022-10-13T21:31:26.445Z,95869.00
2022-10-13T21:37:00.507Z,95862.00
2022-10-13T21:42:46.496Z,95869.00
2022-10-13T21:48:18.765Z,95878.00
2022-10-13T21:53:57.396Z,95879.00
2022-10-13T21:59:33.209Z,95893.00
2022-10-13T22:05:20.502Z,95902.00
2022-10-13T22:10:49.513Z,95909.00
2022-10-13T22:16:25.802Z,95913.00
2022-10-13T22:21:54.046Z,95917.00
2022-10-13T22:27:22.155Z,95927.00
2022-10-13T22:32:50.120Z,95932.00
2022-10-13T22:38:17.904Z,95930.00
2022-10-13T22:43:53.591Z,95933.00
2022-10-13T22:49:21.371Z,95930.00
2022-10-13T22:54:49.136Z,95933.00
2022-10-13T23:00:17.099Z,95930.00
2022-10-13T23:05:48.882Z,95924.00
2022-10-13T23:11:18.791Z,95910.00
2022-10-13T23:16:46.650Z,95906.00
2022-10-13T23:22:14.427Z,95904.00
2022-10-13T23:27:42.797Z,95891.00
2022-10-13T23:33:10.528Z,95885.00
2022-10-13T23:38:38.918Z,95889.00
2022-10-13T23:44:06.720Z,95877.00
2022-10-13T23:49:34.460Z,95889.00
2022-10-13T23:55:02.306Z,95875.00
